sensor_id;sensor_type;location;lat;lon;timestamp;pressure;altitude;pressure_sealevel;temperature;humidity
78123;BME280;67376;44.802;10.332;2024-03-08T00:00:23;101047.94;;;20.23;45.63
78123;BME280;67376;44.802;10.332;2024-03-08T00:02:48;101046.91;;;20.24;46.06
78123;BME280;67376;44.802;10.332;2024-03-08T00:05:16;101045.22;;;20.23;46.41
78123;BME280;67376;44.802;10.332;2024-03-08T00:07:43;101044.41;;;20.23;46.00
78123;BME280;67376;44.802;10.332;2024-03-08T00:10:10;101051.72;;;20.22;45.95
78123;BME280;67376;44.802;10.332;2024-03-08T00:12:42;101047.94;;;20.23;45.52
78123;BME280;67376;44.802;10.332;2024-03-08T00:15:09;101047.13;;;20.23;45.85
78123;BME280;67376;44.802;10.332;2024-03-08T00:17:36;101051.50;;;20.24;45.88
78123;BME280;67376;44.802;10.332;2024-03-08T00:20:01;101057.75;;;20.24;46.15
78123;BME280;67376;44.802;10.332;2024-03-08T00:22:28;101056.09;;;20.23;45.86
78123;BME280;67376;44.802;10.332;2024-03-08T00:24:55;101056.09;;;20.23;45.85
78123;BME280;67376;44.802;10.332;2024-03-08T00:27:21;101058.78;;;20.23;46.28
78123;BME280;67376;44.802;10.332;2024-03-08T00:29:47;101058.78;;;20.23;45.91
78123;BME280;67376;44.802;10.332;2024-03-08T00:32:12;101057.97;;;20.23;46.30
78123;BME280;67376;44.802;10.332;2024-03-08T00:34:38;101052.53;;;20.23;46.24
78123;BME280;67376;44.802;10.332;2024-03-08T00:37:04;101049.84;;;20.23;46.05
78123;BME280;67376;44.802;10.332;2024-03-08T00:39:29;101053.84;;;20.20;46.38
78123;BME280;67376;44.802;10.332;2024-03-08T00:41:55;101052.81;;;20.21;46.18
78123;BME280;67376;44.802;10.332;2024-03-08T00:44:20;101052.81;;;20.21;46.39
78123;BME280;67376;44.802;10.332;2024-03-08T00:46:46;101058.22;;;20.21;46.13
78123;BME280;67376;44.802;10.332;2024-03-08T00:49:11;101060.94;;;20.21;45.66
78123;BME280;67376;44.802;10.332;2024-03-08T00:51:37;101054.69;;;20.21;46.03
78123;BME280;67376;44.802;10.332;2024-03-08T00:54:03;101066.34;;;20.21;46.38
78123;BME280;67376;44.802;10.332;2024-03-08T00:56:28;101055.50;;;20.21;46.08
78123;BME280;67376;44.802;10.332;2024-03-08T00:58:54;101063.66;;;20.21;46.12
78123;BME280;67376;44.802;10.332;2024-03-08T01:01:19;101060.94;;;20.21;46.02
78123;BME280;67376;44.802;10.332;2024-03-08T01:03:44;101057.41;;;20.21;46.42
78123;BME280;67376;44.802;10.332;2024-03-08T01:06:10;101068.25;;;20.21;46.42
78123;BME280;67376;44.802;10.332;2024-03-08T01:08:36;101062.81;;;20.21;46.19
78123;BME280;67376;44.802;10.332;2024-03-08T01:11:04;101060.09;;;20.21;46.67
78123;BME280;67376;44.802;10.332;2024-03-08T01:13:30;101055.75;;;20.20;46.14
78123;BME280;67376;44.802;10.332;2024-03-08T01:15:55;101065.53;;;20.21;46.25
78123;BME280;67376;44.802;10.332;2024-03-08T01:18:21;101056.56;;;20.20;46.16
78123;BME280;67376;44.802;10.332;2024-03-08T01:20:46;101055.75;;;20.20;46.50
78123;BME280;67376;44.802;10.332;2024-03-08T01:23:12;101067.41;;;20.20;45.82
78123;BME280;67376;44.802;10.332;2024-03-08T01:25:37;101057.63;;;20.19;46.20
78123;BME280;67376;44.802;10.332;2024-03-08T01:28:03;101043.22;;;20.19;46.43
78123;BME280;67376;44.802;10.332;2024-03-08T01:30:29;101051.16;;;20.20;46.00
78123;BME280;67376;44.802;10.332;2024-03-08T01:32:54;101043.00;;;20.20;46.01
78123;BME280;67376;44.802;10.332;2024-03-08T01:35:20;101042.19;;;20.20;46.50
78123;BME280;67376;44.802;10.332;2024-03-08T01:37:47;101041.34;;;20.19;45.78
78123;BME280;67376;44.802;10.332;2024-03-08T01:40:15;101035.94;;;20.19;45.98
78123;BME280;67376;44.802;10.332;2024-03-08T01:42:42;101035.94;;;20.19;46.56
78123;BME280;67376;44.802;10.332;2024-03-08T01:45:07;101031.56;;;20.18;45.96
78123;BME280;67376;44.802;10.332;2024-03-08T01:47:34;101034.28;;;20.18;45.91
78123;BME280;67376;44.802;10.332;2024-03-08T01:50:00;101033.66;;;20.16;45.47
78123;BME280;67376;44.802;10.332;2024-03-08T01:52:28;101028.84;;;20.18;45.99
78123;BME280;67376;44.802;10.332;2024-03-08T01:54:58;101033.44;;;20.18;46.19
78123;BME280;67376;44.802;10.332;2024-03-08T01:57:26;101031.78;;;20.17;45.81
78123;BME280;67376;44.802;10.332;2024-03-08T01:59:52;101032.63;;;20.17;46.09
78123;BME280;67376;44.802;10.332;2024-03-08T02:02:20;101027.19;;;20.17;45.85
78123;BME280;67376;44.802;10.332;2024-03-08T02:04:46;101025.53;;;20.16;45.55
78123;BME280;67376;44.802;10.332;2024-03-08T02:07:12;101028.03;;;20.18;46.01
78123;BME280;67376;44.802;10.332;2024-03-08T02:09:38;101022.59;;;20.18;45.71
78123;BME280;67376;44.802;10.332;2024-03-08T02:12:05;101015.75;;;20.15;45.53
78123;BME280;67376;44.802;10.332;2024-03-08T02:14:30;101021.78;;;20.17;46.20
78123;BME280;67376;44.802;10.332;2024-03-08T02:17:00;101024.47;;;20.17;46.00
78123;BME280;67376;44.802;10.332;2024-03-08T02:19:25;101023.66;;;20.17;46.33
78123;BME280;67376;44.802;10.332;2024-03-08T02:21:51;101022.84;;;20.16;46.02
78123;BME280;67376;44.802;10.332;2024-03-08T02:24:16;101025.78;;;20.15;46.02
78123;BME280;67376;44.802;10.332;2024-03-08T02:26:41;101023.88;;;20.15;45.51
78123;BME280;67376;44.802;10.332;2024-03-08T02:29:08;101025.53;;;20.16;45.99
78123;BME280;67376;44.802;10.332;2024-03-08T02:31:34;101025.78;;;20.15;46.47
78123;BME280;67376;44.802;10.332;2024-03-08T02:33:59;101030.97;;;20.16;45.94
78123;BME280;67376;44.802;10.332;2024-03-08T02:36:24;101024.13;;;20.14;45.58
78123;BME280;67376;44.802;10.332;2024-03-08T02:38:50;101033.91;;;20.15;45.61
78123;BME280;67376;44.802;10.332;2024-03-08T02:41:15;101040.97;;;20.16;45.99
78123;BME280;67376;44.802;10.332;2024-03-08T02:43:40;101027.66;;;20.14;46.00
78123;BME280;67376;44.802;10.332;2024-03-08T02:46:06;101037.44;;;20.15;46.25
78123;BME280;67376;44.802;10.332;2024-03-08T02:48:31;101040.38;;;20.14;46.17
78123;BME280;67376;44.802;10.332;2024-03-08T02:50:57;101043.91;;;20.14;46.19
78123;BME280;67376;44.802;10.332;2024-03-08T02:53:22;101045.81;;;20.14;45.65
78123;BME280;67376;44.802;10.332;2024-03-08T02:55:49;101049.34;;;20.14;45.85
78123;BME280;67376;44.802;10.332;2024-03-08T02:58:15;101051.44;;;20.12;45.38
78123;BME280;67376;44.802;10.332;2024-03-08T03:00:40;101051.22;;;20.14;46.33
78123;BME280;67376;44.802;10.332;2024-03-08T03:03:06;101054.16;;;20.12;46.07
78123;BME280;67376;44.802;10.332;2024-03-08T03:05:32;101047.69;;;20.13;46.03
78123;BME280;67376;44.802;10.332;2024-03-08T03:07:59;101049.34;;;20.14;46.04
78123;BME280;67376;44.802;10.332;2024-03-08T03:10:25;101046.63;;;20.14;45.84
78123;BME280;67376;44.802;10.332;2024-03-08T03:12:51;101047.91;;;20.11;45.79
78123;BME280;67376;44.802;10.332;2024-03-08T03:15:17;101040.59;;;20.12;46.05
78123;BME280;67376;44.802;10.332;2024-03-08T03:17:50;101053.09;;;20.13;45.63
78123;BME280;67376;44.802;10.332;2024-03-08T03:20:19;101054.97;;;20.13;45.76
78123;BME280;67376;44.802;10.332;2024-03-08T03:22:58;101057.69;;;20.13;45.40
78123;BME280;67376;44.802;10.332;2024-03-08T03:25:26;101051.44;;;20.12;45.43
78123;BME280;67376;44.802;10.332;2024-03-08T03:27:54;101053.31;;;20.11;46.13
78123;BME280;67376;44.802;10.332;2024-03-08T03:30:23;101049.78;;;20.11;46.44
78123;BME280;67376;44.802;10.332;2024-03-08T03:32:51;101051.44;;;20.12;45.76
78123;BME280;67376;44.802;10.332;2024-03-08T03:35:18;101044.16;;;20.13;45.62
78123;BME280;67376;44.802;10.332;2024-03-08T03:37:44;101046.03;;;20.12;45.68
78123;BME280;67376;44.802;10.332;2024-03-08T03:40:27;101042.47;;;20.11;45.75
78123;BME280;67376;44.802;10.332;2024-03-08T03:42:53;101036.25;;;20.11;45.84
78123;BME280;67376;44.802;10.332;2024-03-08T03:45:18;101037.06;;;20.11;45.68
78123;BME280;67376;44.802;10.332;2024-03-08T03:47:45;101036.25;;;20.11;46.12
78123;BME280;67376;44.802;10.332;2024-03-08T03:50:11;101040.81;;;20.10;45.51
78123;BME280;67376;44.802;10.332;2024-03-08T03:52:36;101046.25;;;20.10;46.08
78123;BME280;67376;44.802;10.332;2024-03-08T03:55:01;101047.31;;;20.09;46.17
78123;BME280;67376;44.802;10.332;2024-03-08T03:57:29;101037.28;;;20.10;45.59
78123;BME280;67376;44.802;10.332;2024-03-08T03:59:55;101041.88;;;20.09;45.47
78123;BME280;67376;44.802;10.332;2024-03-08T04:02:20;101047.53;;;20.08;45.95
78123;BME280;67376;44.802;10.332;2024-03-08T04:04:47;101042.94;;;20.08;45.79
78123;BME280;67376;44.802;10.332;2024-03-08T04:07:13;101043.75;;;20.09;46.23
78123;BME280;67376;44.802;10.332;2024-03-08T04:09:38;101051.06;;;20.08;45.75
78123;BME280;67376;44.802;10.332;2024-03-08T04:12:04;101046.69;;;20.07;46.05
78123;BME280;67376;44.802;10.332;2024-03-08T04:14:30;101044.00;;;20.07;45.80
78123;BME280;67376;44.802;10.332;2024-03-08T04:16:55;101048.59;;;20.07;45.24
78123;BME280;67376;44.802;10.332;2024-03-08T04:19:20;101055.66;;;20.08;46.02
78123;BME280;67376;44.802;10.332;2024-03-08T04:21:46;101045.03;;;20.06;45.84
78123;BME280;67376;44.802;10.332;2024-03-08T04:24:12;101050.25;;;20.08;45.61
78123;BME280;67376;44.802;10.332;2024-03-08T04:26:37;101048.81;;;20.05;45.82
78123;BME280;67376;44.802;10.332;2024-03-08T04:29:03;101044.22;;;20.06;45.68
78123;BME280;67376;44.802;10.332;2024-03-08T04:31:28;101047.75;;;20.06;46.10
78123;BME280;67376;44.802;10.332;2024-03-08T04:33:56;101045.88;;;20.07;46.05
78123;BME280;67376;44.802;10.332;2024-03-08T04:36:22;101050.47;;;20.06;45.55
78123;BME280;67376;44.802;10.332;2024-03-08T04:38:48;101043.38;;;20.05;45.88
78123;BME280;67376;44.802;10.332;2024-03-08T04:41:14;101036.09;;;20.06;45.36
78123;BME280;67376;44.802;10.332;2024-03-08T04:43:39;101040.69;;;20.05;45.38
78123;BME280;67376;44.802;10.332;2024-03-08T04:46:05;101045.88;;;20.07;45.71
78123;BME280;67376;44.802;10.332;2024-03-08T04:48:30;101046.09;;;20.05;45.87
78123;BME280;67376;44.802;10.332;2024-03-08T04:50:56;101054.22;;;20.05;45.90
78123;BME280;67376;44.802;10.332;2024-03-08T04:53:22;101041.50;;;20.06;45.89
78123;BME280;67376;44.802;10.332;2024-03-08T04:55:48;101037.13;;;20.05;46.13
78123;BME280;67376;44.802;10.332;2024-03-08T04:58:14;101035.47;;;20.04;45.76
78123;BME280;67376;44.802;10.332;2024-03-08T05:00:40;101045.50;;;20.03;45.73
78123;BME280;67376;44.802;10.332;2024-03-08T05:03:06;101047.16;;;20.04;45.67
78123;BME280;67376;44.802;10.332;2024-03-08T05:05:31;101054.47;;;20.04;46.05
78123;BME280;67376;44.802;10.332;2024-03-08T05:07:58;101046.56;;;20.02;46.10
78123;BME280;67376;44.802;10.332;2024-03-08T05:10:23;101055.50;;;20.03;45.70
78123;BME280;67376;44.802;10.332;2024-03-08T05:12:48;101057.16;;;20.04;46.15
78123;BME280;67376;44.802;10.332;2024-03-08T05:15:14;101056.34;;;20.03;45.54
78123;BME280;67376;44.802;10.332;2024-03-08T05:17:39;101060.69;;;20.04;45.77
78123;BME280;67376;44.802;10.332;2024-03-08T05:20:06;101058.22;;;20.03;46.20
78123;BME280;67376;44.802;10.332;2024-03-08T05:22:33;101062.81;;;20.02;45.51
78123;BME280;67376;44.802;10.332;2024-03-08T05:24:59;101063.63;;;20.03;45.64
78123;BME280;67376;44.802;10.332;2024-03-08T05:27:24;101063.63;;;20.03;46.09
78123;BME280;67376;44.802;10.332;2024-03-08T05:29:49;101073.66;;;20.02;45.80
78123;BME280;67376;44.802;10.332;2024-03-08T05:32:15;101068.47;;;20.01;45.81
78123;BME280;67376;44.802;10.332;2024-03-08T05:34:40;101069.28;;;20.01;45.70
78123;BME280;67376;44.802;10.332;2024-03-08T05:37:05;101059.72;;;19.99;45.64
78123;BME280;67376;44.802;10.332;2024-03-08T05:39:32;101073.06;;;20.00;45.72
78123;BME280;67376;44.802;10.332;2024-03-08T05:41:57;101070.34;;;20.00;45.70
78123;BME280;67376;44.802;10.332;2024-03-08T05:44:23;101064.09;;;20.00;45.53
78123;BME280;67376;44.802;10.332;2024-03-08T05:46:48;101068.69;;;19.99;45.88
78123;BME280;67376;44.802;10.332;2024-03-08T05:49:14;101072.44;;;19.98;45.90
78123;BME280;67376;44.802;10.332;2024-03-08T05:51:40;101071.38;;;19.99;45.64
78123;BME280;67376;44.802;10.332;2024-03-08T05:54:07;101073.28;;;19.99;46.33
78123;BME280;67376;44.802;10.332;2024-03-08T05:56:37;101068.69;;;19.99;45.70
78123;BME280;67376;44.802;10.332;2024-03-08T05:59:03;101079.28;;;20.01;46.69
78123;BME280;67376;44.802;10.332;2024-03-08T06:01:29;101080.34;;;20.00;46.90
78123;BME280;67376;44.802;10.332;2024-03-08T06:03:55;101076.81;;;19.99;46.80
78123;BME280;67376;44.802;10.332;2024-03-08T06:06:23;101078.47;;;20.00;47.12
78123;BME280;67376;44.802;10.332;2024-03-08T06:08:49;101080.34;;;20.00;46.81
78123;BME280;67376;44.802;10.332;2024-03-08T06:11:16;101080.97;;;20.02;46.51
78123;BME280;67376;44.802;10.332;2024-03-08T06:13:44;101084.34;;;19.97;45.55
78123;BME280;67376;44.802;10.332;2024-03-08T06:16:10;101083.13;;;19.93;46.22
78123;BME280;67376;44.802;10.332;2024-03-08T06:18:36;101087.50;;;19.94;46.57
78123;BME280;67376;44.802;10.332;2024-03-08T06:21:07;101089.97;;;19.96;46.30
78123;BME280;67376;44.802;10.332;2024-03-08T06:23:37;101090.81;;;19.96;47.00
78123;BME280;67376;44.802;10.332;2024-03-08T06:26:05;101087.06;;;19.97;46.37
78123;BME280;67376;44.802;10.332;2024-03-08T06:28:31;101094.97;;;19.99;47.02
78123;BME280;67376;44.802;10.332;2024-03-08T06:30:58;101093.06;;;19.99;46.42
78123;BME280;67376;44.802;10.332;2024-03-08T06:33:24;101091.19;;;20.00;46.66
78123;BME280;67376;44.802;10.332;2024-03-08T06:35:51;101101.22;;;19.99;46.72
78123;BME280;67376;44.802;10.332;2024-03-08T06:38:17;101108.28;;;20.00;46.13
78123;BME280;67376;44.802;10.332;2024-03-08T06:40:43;101108.06;;;20.02;46.18
78123;BME280;67376;44.802;10.332;2024-03-08T06:43:09;101108.06;;;20.02;46.14
78123;BME280;67376;44.802;10.332;2024-03-08T06:45:36;101112.66;;;20.01;46.57
78123;BME280;67376;44.802;10.332;2024-03-08T06:48:03;101107.22;;;20.01;46.08
78123;BME280;67376;44.802;10.332;2024-03-08T06:50:28;101102.63;;;20.02;46.96
78123;BME280;67376;44.802;10.332;2024-03-08T06:52:54;101099.09;;;20.01;46.28
78123;BME280;67376;44.802;10.332;2024-03-08T06:55:22;101092.63;;;20.02;47.01
78123;BME280;67376;44.802;10.332;2024-03-08T06:57:47;101090.97;;;20.01;46.66
78123;BME280;67376;44.802;10.332;2024-03-08T07:00:13;101090.75;;;20.03;46.66
78123;BME280;67376;44.802;10.332;2024-03-08T07:02:44;101092.63;;;20.02;46.60
78123;BME280;67376;44.802;10.332;2024-03-08T07:05:14;101083.88;;;20.00;46.36
78123;BME280;67376;44.802;10.332;2024-03-08T07:07:41;101096.38;;;20.01;46.25
78123;BME280;67376;44.802;10.332;2024-03-08T07:10:07;101088.25;;;20.01;46.46
78123;BME280;67376;44.802;10.332;2024-03-08T07:12:36;101085.78;;;20.00;46.33
78123;BME280;67376;44.802;10.332;2024-03-08T07:15:02;101090.38;;;19.99;46.50
78123;BME280;67376;44.802;10.332;2024-03-08T07:17:27;101091.19;;;20.00;46.19
78123;BME280;67376;44.802;10.332;2024-03-08T07:19:53;101087.66;;;19.99;45.53
78123;BME280;67376;44.802;10.332;2024-03-08T07:22:19;101091.41;;;19.98;44.93
78123;BME280;67376;44.802;10.332;2024-03-08T07:24:44;101087.66;;;19.99;44.00
78123;BME280;67376;44.802;10.332;2024-03-08T07:27:41;101098.28;;;20.01;44.16
78123;BME280;67376;44.802;10.332;2024-03-08T07:30:07;101100.97;;;20.01;43.68
78123;BME280;67376;44.802;10.332;2024-03-08T07:32:35;101101.81;;;20.01;43.76
78123;BME280;67376;44.802;10.332;2024-03-08T07:35:01;101104.53;;;20.01;43.96
78123;BME280;67376;44.802;10.332;2024-03-08T07:37:27;101106.19;;;20.02;43.28
78123;BME280;67376;44.802;10.332;2024-03-08T07:39:52;101099.94;;;20.02;43.99
78123;BME280;67376;44.802;10.332;2024-03-08T07:42:18;101111.59;;;20.02;43.62
78123;BME280;67376;44.802;10.332;2024-03-08T07:44:43;101120.56;;;20.03;42.92
78123;BME280;67376;44.802;10.332;2024-03-08T07:47:08;101117.84;;;20.03;43.83
78123;BME280;67376;44.802;10.332;2024-03-08T07:49:35;101116.78;;;20.04;43.24
78123;BME280;67376;44.802;10.332;2024-03-08T07:52:03;101117.84;;;20.03;43.37
78123;BME280;67376;44.802;10.332;2024-03-08T07:54:30;101118.69;;;20.03;43.48
78123;BME280;67376;44.802;10.332;2024-03-08T07:56:55;101119.28;;;20.05;43.17
78123;BME280;67376;44.802;10.332;2024-03-08T07:59:20;101117.41;;;20.06;43.24
78123;BME280;67376;44.802;10.332;2024-03-08T08:01:46;101113.03;;;20.05;42.84
78123;BME280;67376;44.802;10.332;2024-03-08T08:04:12;101116.56;;;20.05;43.08
78123;BME280;67376;44.802;10.332;2024-03-08T08:06:40;101111.38;;;20.04;43.26
78123;BME280;67376;44.802;10.332;2024-03-08T08:09:08;101118.22;;;20.06;42.55
78123;BME280;67376;44.802;10.332;2024-03-08T08:11:41;101112.81;;;20.06;42.70
78123;BME280;67376;44.802;10.332;2024-03-08T08:14:09;101124.47;;;20.07;43.31
78123;BME280;67376;44.802;10.332;2024-03-08T08:16:37;101130.94;;;20.06;42.66
78123;BME280;67376;44.802;10.332;2024-03-08T08:19:03;101129.06;;;20.06;42.15
78123;BME280;67376;44.802;10.332;2024-03-08T08:21:34;101120.94;;;20.06;42.25
78123;BME280;67376;44.802;10.332;2024-03-08T08:23:59;101122.81;;;20.06;42.46
78123;BME280;67376;44.802;10.332;2024-03-08T08:26:25;101123.66;;;20.06;42.30
78123;BME280;67376;44.802;10.332;2024-03-08T08:28:51;101120.13;;;20.06;42.40
78123;BME280;67376;44.802;10.332;2024-03-08T08:31:18;101123.03;;;20.04;41.97
78123;BME280;67376;44.802;10.332;2024-03-08T08:33:44;101117.41;;;20.06;41.99
78123;BME280;67376;44.802;10.332;2024-03-08T08:36:10;101115.75;;;20.05;42.67
78123;BME280;67376;44.802;10.332;2024-03-08T08:38:35;101119.06;;;20.07;42.61
78123;BME280;67376;44.802;10.332;2024-03-08T08:41:00;101124.47;;;20.07;42.11
78123;BME280;67376;44.802;10.332;2024-03-08T08:43:27;101127.19;;;20.07;42.40
78123;BME280;67376;44.802;10.332;2024-03-08T08:45:53;101124.69;;;20.05;42.51
78123;BME280;67376;44.802;10.332;2024-03-08T08:48:20;101115.53;;;20.06;42.58
78123;BME280;67376;44.802;10.332;2024-03-08T08:50:45;101120.13;;;20.06;41.81
78123;BME280;67376;44.802;10.332;2024-03-08T08:53:12;101122.81;;;20.06;41.83
78123;BME280;67376;44.802;10.332;2024-03-08T08:55:40;101115.53;;;20.06;42.12
78123;BME280;67376;44.802;10.332;2024-03-08T08:58:05;101122.00;;;20.05;41.90
78123;BME280;67376;44.802;10.332;2024-03-08T09:00:33;101126.38;;;20.06;42.24
78123;BME280;67376;44.802;10.332;2024-03-08T09:03:00;101119.28;;;20.05;42.51
78123;BME280;67376;44.802;10.332;2024-03-08T09:05:25;101120.34;;;20.04;42.26
78123;BME280;67376;44.802;10.332;2024-03-08T09:07:51;101128.47;;;20.04;41.86
78123;BME280;67376;44.802;10.332;2024-03-08T09:10:18;101124.09;;;20.03;42.49
78123;BME280;67376;44.802;10.332;2024-03-08T09:12:44;101129.28;;;20.05;41.64
78123;BME280;67376;44.802;10.332;2024-03-08T09:15:09;101128.69;;;20.03;42.19
78123;BME280;67376;44.802;10.332;2024-03-08T09:17:37;101128.69;;;20.03;42.13
78123;BME280;67376;44.802;10.332;2024-03-08T09:20:08;101115.97;;;20.03;42.04
78123;BME280;67376;44.802;10.332;2024-03-08T09:22:34;101112.44;;;20.03;42.44
78123;BME280;67376;44.802;10.332;2024-03-08T09:25:00;101117.03;;;20.02;42.30
78123;BME280;67376;44.802;10.332;2024-03-08T09:27:26;101118.06;;;20.01;42.42
78123;BME280;67376;44.802;10.332;2024-03-08T09:29:51;101119.72;;;20.02;42.60
78123;BME280;67376;44.802;10.332;2024-03-08T09:32:17;101118.91;;;20.02;41.73
78123;BME280;67376;44.802;10.332;2024-03-08T09:34:42;101119.72;;;20.02;42.28
78123;BME280;67376;44.802;10.332;2024-03-08T09:37:07;101122.44;;;20.02;42.34
78123;BME280;67376;44.802;10.332;2024-03-08T09:39:34;101118.91;;;20.02;42.06
78123;BME280;67376;44.802;10.332;2024-03-08T09:41:59;101125.16;;;20.02;41.89
78123;BME280;67376;44.802;10.332;2024-03-08T09:44:26;101121.63;;;20.02;42.53
78123;BME280;67376;44.802;10.332;2024-03-08T09:46:54;101121.63;;;20.02;42.08
78123;BME280;67376;44.802;10.332;2024-03-08T09:49:20;101125.97;;;20.03;42.13
78123;BME280;67376;44.802;10.332;2024-03-08T09:51:45;101125.16;;;20.02;42.11
78123;BME280;67376;44.802;10.332;2024-03-08T09:54:12;101130.56;;;20.02;41.81
78123;BME280;67376;44.802;10.332;2024-03-08T09:56:39;101124.31;;;20.02;42.40
78123;BME280;67376;44.802;10.332;2024-03-08T09:59:07;101130.56;;;20.02;42.20
78123;BME280;67376;44.802;10.332;2024-03-08T10:01:51;101115.38;;;20.01;42.98
78123;BME280;67376;44.802;10.332;2024-03-08T10:04:17;101125.97;;;20.03;43.05
78123;BME280;67376;44.802;10.332;2024-03-08T10:06:43;101123.28;;;20.03;42.63
78123;BME280;67376;44.802;10.332;2024-03-08T10:09:12;101129.75;;;20.02;43.14
78123;BME280;67376;44.802;10.332;2024-03-08T10:11:37;101115.38;;;20.01;43.01
78123;BME280;67376;44.802;10.332;2024-03-08T10:14:04;101112.88;;;20.00;42.99
78123;BME280;67376;44.802;10.332;2024-03-08T10:16:31;101119.94;;;20.01;42.92
78123;BME280;67376;44.802;10.332;2024-03-08T10:18:57;101116.19;;;20.02;42.32
78123;BME280;67376;44.802;10.332;2024-03-08T10:21:22;101115.59;;;20.00;42.99
78123;BME280;67376;44.802;10.332;2024-03-08T10:23:48;101117.47;;;19.99;42.84
78123;BME280;67376;44.802;10.332;2024-03-08T10:26:15;101112.28;;;19.98;42.53
78123;BME280;67376;44.802;10.332;2024-03-08T10:28:42;101111.22;;;19.99;42.61
78123;BME280;67376;44.802;10.332;2024-03-08T10:31:09;101108.50;;;19.99;42.81
78123;BME280;67376;44.802;10.332;2024-03-08T10:33:35;101109.34;;;19.99;43.22
78123;BME280;67376;44.802;10.332;2024-03-08T10:36:00;101117.25;;;20.01;43.03
78123;BME280;67376;44.802;10.332;2024-03-08T10:38:26;101105.34;;;20.02;43.39
78123;BME280;67376;44.802;10.332;2024-03-08T10:40:52;101111.22;;;19.99;43.45
78123;BME280;67376;44.802;10.332;2024-03-08T10:43:24;101102.63;;;20.02;44.01
78123;BME280;67376;44.802;10.332;2024-03-08T10:45:57;101104.00;;;20.11;42.82
78123;BME280;67376;44.802;10.332;2024-03-08T10:48:31;101105.38;;;20.20;42.94
78123;BME280;67376;44.802;10.332;2024-03-08T10:51:02;101104.81;;;20.30;41.45
78123;BME280;67376;44.802;10.332;2024-03-08T10:53:28;101109.56;;;20.34;40.52
78123;BME280;67376;44.802;10.332;2024-03-08T10:55:56;101105.41;;;20.32;40.93
78123;BME280;67376;44.802;10.332;2024-03-08T10:58:24;101107.28;;;20.31;40.31
78123;BME280;67376;44.802;10.332;2024-03-08T11:00:53;101101.50;;;20.28;40.20
78123;BME280;67376;44.802;10.332;2024-03-08T11:03:45;101100.78;;;20.21;40.07
78123;BME280;67376;44.802;10.332;2024-03-08T11:09:01;101105.72;;;20.05;40.74
78123;BME280;67376;44.802;10.332;2024-03-08T11:11:27;101100.16;;;20.00;41.17
78123;BME280;67376;44.802;10.332;2024-03-08T11:13:56;101098.41;;;19.88;51.63
78123;BME280;67376;44.802;10.332;2024-03-08T11:21:35;101087.91;;;19.55;47.93
78123;BME280;67376;44.802;10.332;2024-03-08T11:24:08;101092.69;;;19.53;47.08
78123;BME280;67376;44.802;10.332;2024-03-08T11:26:36;101091.88;;;19.52;46.86
78123;BME280;67376;44.802;10.332;2024-03-08T11:31:45;101076.84;;;19.56;45.20
78123;BME280;67376;44.802;10.332;2024-03-08T11:34:15;101070.97;;;19.59;43.98
78123;BME280;67376;44.802;10.332;2024-03-08T11:36:41;101078.88;;;19.61;44.80
78123;BME280;67376;44.802;10.332;2024-03-08T11:39:07;101061.38;;;19.63;44.69
78123;BME280;67376;44.802;10.332;2024-03-08T11:41:39;101063.59;;;19.66;44.28
78123;BME280;67376;44.802;10.332;2024-03-08T11:44:06;101064.59;;;19.72;43.71
78123;BME280;67376;44.802;10.332;2024-03-08T11:46:32;101064.34;;;19.73;44.47
78123;BME280;67376;44.802;10.332;2024-03-08T11:48:59;101064.13;;;19.75;44.00
78123;BME280;67376;44.802;10.332;2024-03-08T11:51:25;101063.91;;;19.76;43.96
78123;BME280;67376;44.802;10.332;2024-03-08T11:53:50;101058.88;;;19.80;43.88
78123;BME280;67376;44.802;10.332;2024-03-08T11:56:16;101059.69;;;19.81;43.43
78123;BME280;67376;44.802;10.332;2024-03-08T11:58:41;101061.38;;;19.82;43.53
78123;BME280;67376;44.802;10.332;2024-03-08T12:01:07;101047.81;;;19.82;43.32
78123;BME280;67376;44.802;10.332;2024-03-08T12:03:34;101049.25;;;19.84;43.12
78123;BME280;67376;44.802;10.332;2024-03-08T12:06:00;101049.03;;;19.86;43.93
78123;BME280;67376;44.802;10.332;2024-03-08T12:08:26;101043.59;;;19.86;43.15
78123;BME280;67376;44.802;10.332;2024-03-08T12:10:54;101042.56;;;19.87;43.11
78123;BME280;67376;44.802;10.332;2024-03-08T12:13:25;101034.19;;;19.88;43.30
78123;BME280;67376;44.802;10.332;2024-03-08T12:15:50;101041.50;;;19.88;43.49
78123;BME280;67376;44.802;10.332;2024-03-08T12:18:16;101034.19;;;19.88;43.59
78123;BME280;67376;44.802;10.332;2024-03-08T12:20:41;101037.97;;;19.87;43.75
78123;BME280;67376;44.802;10.332;2024-03-08T12:23:14;101031.50;;;19.88;43.54
78123;BME280;67376;44.802;10.332;2024-03-08T12:25:40;101034.19;;;19.88;43.53
78123;BME280;67376;44.802;10.332;2024-03-08T12:28:08;101030.44;;;19.89;43.81
78123;BME280;67376;44.802;10.332;2024-03-08T12:30:50;101023.97;;;19.90;43.70
78123;BME280;67376;44.802;10.332;2024-03-08T12:33:19;101018.53;;;19.90;43.67
78123;BME280;67376;44.802;10.332;2024-03-08T12:35:54;101015.59;;;19.92;44.10
78123;BME280;67376;44.802;10.332;2024-03-08T12:38:20;101003.94;;;19.91;44.34
78123;BME280;67376;44.802;10.332;2024-03-08T12:40:49;101007.25;;;19.93;44.05
78123;BME280;67376;44.802;10.332;2024-03-08T12:43:15;101000.31;;;19.97;44.01
78123;BME280;67376;44.802;10.332;2024-03-08T12:45:40;100999.03;;;20.00;43.19
78123;BME280;67376;44.802;10.332;2024-03-08T12:48:12;101005.75;;;19.97;43.11